Time;durP1;ratioP1;P1;durP2;ratioP2;P2;SDS_P1;SDS_P2;PMS_P1;PMS_P2;Temp;Humidity;BMP_temperature;BMP_pressure;BME280_temperature;BME280_humidity;BME280_pressure;Samples;Min_cycle;Max_cycle;Signal;HPM_P1;HPM_P2
2021/07/26 00:02:23;;;;;;;0.40;0.20;;;;;;;18.94;100.00;99656.56;4997623;28;20444;-79
2021/07/26 00:04:50;;;;;;;0.83;0.57;;;;;;;18.93;100.00;99647.63;4998207;28;20480;-79
2021/07/26 00:07:17;;;;;;;2.97;1.33;;;;;;;19.02;100.00;99654.13;4997000;28;20454;-79
2021/07/26 00:09:44;;;;;;;0.40;0.20;;;;;;;19.02;100.00;99627.19;4995824;28;20453;-79
2021/07/26 00:12:10;;;;;;;1.37;1.37;;;;;;;19.00;100.00;99636.38;4995478;28;20529;-79
2021/07/26 00:14:37;;;;;;;0.40;0.23;;;;;;;18.88;100.00;99633.59;4997153;28;20481;-79
2021/07/26 00:17:04;;;;;;;0.40;0.20;;;;;;;19.02;100.00;99634.41;4996926;28;20496;-79
2021/07/26 00:19:30;;;;;;;0.40;0.20;;;;;;;19.11;100.00;99640.00;4995960;28;20464;-79
2021/07/26 00:21:57;;;;;;;1.13;1.13;;;;;;;18.92;100.00;99635.13;4996932;28;20757;-79
2021/07/26 00:24:24;;;;;;;0.40;0.20;;;;;;;18.86;100.00;99640.09;4997943;28;20469;-79
2021/07/26 00:26:50;;;;;;;0.40;0.20;;;;;;;18.80;100.00;99640.53;4997253;28;20453;-79
2021/07/26 00:29:17;;;;;;;0.50;0.50;;;;;;;18.80;100.00;99645.94;5013067;28;20453;-79
2021/07/26 00:31:43;;;;;;;0.40;0.20;;;;;;;18.65;100.00;99639.81;4996832;28;20464;-79
2021/07/26 00:34:20;;;;;;;4.10;0.70;;;;;;;18.70;100.00;99634.97;4997225;28;20478;-79
2021/07/26 00:36:48;;;;;;;0.40;0.20;;;;;;;18.64;100.00;99654.25;4998531;28;20981;-79
2021/07/26 00:39:17;;;;;;;0.50;0.40;;;;;;;18.47;100.00;99641.09;4997180;28;20493;-79
2021/07/26 00:41:45;;;;;;;0.40;0.20;;;;;;;18.13;100.00;99640.81;4997209;28;20441;-79
2021/07/26 00:44:12;;;;;;;0.40;0.20;;;;;;;18.48;100.00;99640.97;4996939;28;20500;-79
2021/07/26 00:46:38;;;;;;;0.40;0.20;;;;;;;18.28;100.00;99638.88;4997138;28;20436;-79
2021/07/26 00:49:08;;;;;;;0.40;0.20;;;;;;;18.39;100.00;99643.50;4996998;28;20453;-79
2021/07/26 00:51:37;;;;;;;0.40;0.20;;;;;;;18.20;100.00;99644.78;4997026;28;20441;-79
2021/07/26 00:54:04;;;;;;;0.50;0.37;;;;;;;18.55;100.00;99649.50;4997453;28;20453;-79
2021/07/26 00:56:31;;;;;;;0.40;0.20;;;;;;;18.38;100.00;99634.56;4999980;28;20499;-79
2021/07/26 00:58:58;;;;;;;0.40;0.20;;;;;;;18.29;100.00;99632.50;5001295;28;20830;-79
2021/07/26 01:01:25;;;;;;;0.40;0.20;;;;;;;18.33;100.00;99639.38;5004193;28;20473;-79
2021/07/26 01:03:52;;;;;;;0.40;0.20;;;;;;;18.27;100.00;99634.44;5012594;28;20445;-79
2021/07/26 01:06:20;;;;;;;0.50;0.47;;;;;;;18.36;100.00;99647.22;5011799;28;20902;-79
2021/07/26 01:08:47;;;;;;;0.40;0.20;;;;;;;18.34;100.00;99641.09;5005929;28;20484;-79
2021/07/26 01:11:15;;;;;;;0.40;0.20;;;;;;;18.29;100.00;99640.59;5005686;28;20477;-79
2021/07/26 01:13:42;;;;;;;0.40;0.20;;;;;;;18.42;100.00;99644.13;5006215;28;20509;-79
2021/07/26 01:16:09;;;;;;;0.40;0.20;;;;;;;18.23;100.00;99649.09;5005903;28;20548;-79
2021/07/26 01:18:37;;;;;;;0.40;0.20;;;;;;;18.45;100.00;99651.13;5004671;28;20489;-79
2021/07/26 01:21:05;;;;;;;0.40;0.20;;;;;;;18.42;100.00;99656.72;5004617;28;20457;-79
2021/07/26 01:23:34;;;;;;;0.40;0.20;;;;;;;18.42;100.00;99649.50;5004599;28;20870;-79
2021/07/26 01:26:03;;;;;;;0.40;0.30;;;;;;;18.43;100.00;99650.38;5004206;28;20477;-79
2021/07/26 01:28:35;;;;;;;0.40;0.30;;;;;;;18.37;100.00;99659.75;4994286;28;20810;-79
2021/07/26 01:31:02;;;;;;;0.40;0.20;;;;;;;18.28;100.00;99663.09;5003161;28;20477;-79
2021/07/26 01:33:29;;;;;;;0.40;0.20;;;;;;;18.20;100.00;99658.22;5003497;28;20457;-79
2021/07/26 01:35:56;;;;;;;0.40;0.20;;;;;;;18.00;100.00;99662.31;5003617;28;20473;-79
2021/07/26 01:38:23;;;;;;;2.20;1.03;;;;;;;18.02;100.00;99662.22;5003839;28;20547;-79
2021/07/26 01:40:50;;;;;;;0.40;0.20;;;;;;;17.77;100.00;99665.72;5002858;28;20458;-79
2021/07/26 01:43:17;;;;;;;0.40;0.20;;;;;;;17.81;100.00;99659.16;5003085;28;20454;-79
2021/07/26 01:45:57;;;;;;;0.40;0.20;;;;;;;17.72;100.00;99663.34;5004367;28;20500;-79
2021/07/26 01:48:29;;;;;;;0.40;0.20;;;;;;;17.82;100.00;99663.59;5004218;28;20880;-80
2021/07/26 01:51:02;;;;;;;0.50;0.40;;;;;;;17.77;100.00;99661.19;5004490;28;20937;-80
2021/07/26 01:53:30;;;;;;;0.40;0.20;;;;;;;17.78;100.00;99667.44;5001924;28;20977;-80
2021/07/26 01:55:57;;;;;;;0.40;0.20;;;;;;;17.85;100.00;99670.59;5002644;28;20463;-80
2021/07/26 01:58:25;;;;;;;0.40;0.20;;;;;;;17.81;100.00;99658.28;5001763;28;20501;-80
2021/07/26 02:00:52;;;;;;;0.40;0.20;;;;;;;17.86;100.00;99670.47;5001899;28;20493;-80
2021/07/26 02:03:18;;;;;;;0.40;0.30;;;;;;;17.88;100.00;99667.69;5003374;28;20445;-80
2021/07/26 02:05:45;;;;;;;0.40;0.20;;;;;;;17.71;100.00;99672.38;5000387;28;20556;-80
2021/07/26 02:08:12;;;;;;;0.40;0.20;;;;;;;17.70;100.00;99669.81;5000375;28;20446;-80
2021/07/26 02:10:38;;;;;;;0.40;0.20;;;;;;;17.68;100.00;99672.59;4999697;28;20485;-80
2021/07/26 02:13:05;;;;;;;5.00;2.27;;;;;;;17.70;100.00;99667.13;4999397;28;20449;-80
2021/07/26 02:15:31;;;;;;;0.40;0.20;;;;;;;17.63;100.00;99660.38;4999684;28;20979;-80
2021/07/26 02:17:58;;;;;;;0.40;0.20;;;;;;;17.65;100.00;99663.81;4999601;28;20468;-79
2021/07/26 02:20:25;;;;;;;0.40;0.20;;;;;;;17.55;100.00;99657.38;5000320;28;20442;-79
2021/07/26 02:22:51;;;;;;;0.40;0.20;;;;;;;17.58;100.00;99665.22;5001394;28;20473;-80
2021/07/26 02:25:19;;;;;;;0.40;0.20;;;;;;;17.42;100.00;99668.09;4999821;28;20500;-80
2021/07/26 02:27:46;;;;;;;0.40;0.20;;;;;;;17.45;100.00;99670.56;5001140;28;20593;-80
2021/07/26 02:30:12;;;;;;;0.40;0.20;;;;;;;17.42;100.00;99678.81;4999864;28;20504;-79
2021/07/26 02:32:39;;;;;;;0.40;0.40;;;;;;;17.47;100.00;99680.22;5000069;28;20446;-80
2021/07/26 02:35:07;;;;;;;0.40;0.30;;;;;;;17.42;100.00;99685.06;4999640;28;20478;-80
2021/07/26 02:37:33;;;;;;;0.40;0.20;;;;;;;17.29;100.00;99680.59;5000679;28;20458;-80
2021/07/26 02:40:00;;;;;;;0.40;0.20;;;;;;;17.04;100.00;99681.34;4999438;28;21037;-80
2021/07/26 02:42:27;;;;;;;0.40;0.20;;;;;;;17.23;100.00;99684.53;5000313;28;20445;-80
2021/07/26 02:44:54;;;;;;;0.40;0.20;;;;;;;17.17;100.00;99684.94;4999425;28;20496;-80
2021/07/26 02:47:20;;;;;;;0.50;0.40;;;;;;;17.25;100.00;99685.28;5000227;28;20504;-80
2021/07/26 02:49:47;;;;;;;0.40;0.20;;;;;;;17.14;100.00;99687.84;4999577;28;20446;-79
2021/07/26 02:52:13;;;;;;;0.40;0.20;;;;;;;17.15;100.00;99685.06;5000790;28;20511;-79
2021/07/26 02:54:40;;;;;;;0.40;0.20;;;;;;;17.09;100.00;99687.25;5000504;28;20474;-80
2021/07/26 02:57:06;;;;;;;0.40;0.20;;;;;;;17.14;100.00;99699.44;4999146;28;20485;-80
2021/07/26 02:59:33;;;;;;;2.03;0.70;;;;;;;17.03;100.00;99685.00;5000907;28;20842;-80
2021/07/26 03:02:00;;;;;;;0.40;0.20;;;;;;;17.02;100.00;99696.69;4999116;28;20468;-80
2021/07/26 03:04:26;;;;;;;0.40;0.20;;;;;;;16.98;100.00;99705.88;4999114;28;20477;-80
2021/07/26 03:06:53;;;;;;;0.40;0.20;;;;;;;17.05;100.00;99700.03;4986249;28;20454;-80
2021/07/26 03:09:19;;;;;;;0.40;0.20;;;;;;;17.03;100.00;99685.00;4999509;28;20504;-80
2021/07/26 03:11:49;;;;;;;0.40;0.20;;;;;;;17.18;100.00;99692.03;4992679;28;20450;-80
2021/07/26 03:14:15;;;;;;;0.40;0.20;;;;;;;17.03;100.00;99693.03;4999722;28;20947;-80
2021/07/26 03:16:42;;;;;;;0.40;0.20;;;;;;;17.03;100.00;99699.28;5000507;28;20449;-80
2021/07/26 03:19:09;;;;;;;0.40;0.20;;;;;;;16.90;100.00;99697.47;5000139;28;20490;-80
2021/07/26 03:21:36;;;;;;;0.40;0.20;;;;;;;16.96;100.00;99692.56;4998332;28;20453;-80
2021/07/26 03:24:02;;;;;;;0.40;0.20;;;;;;;16.96;100.00;99710.50;4998508;28;20488;-79
2021/07/26 03:26:29;;;;;;;0.50;0.30;;;;;;;16.88;100.00;99705.63;5000332;28;20472;-80
2021/07/26 03:28:55;;;;;;;0.40;0.30;;;;;;;16.87;100.00;99711.97;5015647;28;20450;-80
2021/07/26 03:31:22;;;;;;;0.40;0.20;;;;;;;16.84;100.00;99701.41;5000368;28;20496;-80
2021/07/26 03:33:49;;;;;;;0.40;0.20;;;;;;;16.83;100.00;99702.38;4997437;28;20446;-80
2021/07/26 03:36:15;;;;;;;0.40;0.20;;;;;;;16.73;100.00;99693.19;4998580;28;20519;-80
2021/07/26 03:38:42;;;;;;;0.40;0.20;;;;;;;16.73;100.00;99703.94;4997472;28;20497;-80
2021/07/26 03:41:09;;;;;;;0.40;0.20;;;;;;;16.62;100.00;99703.72;4997627;28;20457;-80
2021/07/26 03:43:35;;;;;;;0.40;0.20;;;;;;;16.64;100.00;99702.66;4998972;28;20453;-80
2021/07/26 03:46:02;;;;;;;0.50;0.20;;;;;;;16.65;100.00;99698.13;4997612;28;20516;-79
2021/07/26 03:48:29;;;;;;;0.40;0.20;;;;;;;16.71;100.00;99708.50;4997713;28;20453;-80
2021/07/26 03:50:55;;;;;;;0.40;0.20;;;;;;;16.74;100.00;99701.16;4996878;28;20943;-79
2021/07/26 03:53:22;;;;;;;0.60;0.50;;;;;;;17.03;100.00;99717.22;4996321;28;20461;-79
2021/07/26 03:55:49;;;;;;;0.40;0.30;;;;;;;17.02;100.00;99712.81;4997901;28;20605;-79
2021/07/26 03:58:15;;;;;;;0.40;0.20;;;;;;;16.92;100.00;99709.84;4996603;28;20457;-79
2021/07/26 04:00:42;;;;;;;0.40;0.20;;;;;;;16.85;100.00;99713.88;4996205;28;20501;-79
2021/07/26 04:06:13;;;;;;;0.40;0.20;;;;;;;16.72;100.00;99712.91;4996664;28;20521;-79
2021/07/26 04:08:42;;;;;;;1.77;0.73;;;;;;;16.33;100.00;99689.44;4996569;28;20496;-79
2021/07/26 04:11:13;;;;;;;0.40;0.20;;;;;;;16.61;100.00;99716.25;4996187;28;20815;-79
2021/07/26 04:13:42;;;;;;;0.40;0.20;;;;;;;16.62;100.00;99711.75;4997582;28;20461;-79
2021/07/26 04:16:09;;;;;;;1.27;1.17;;;;;;;16.52;100.00;99727.56;4995218;28;20469;-80
2021/07/26 04:18:36;;;;;;;1.60;1.50;;;;;;;16.53;100.00;99723.91;4992760;28;20962;-80
2021/07/26 04:21:08;;;;;;;0.40;0.20;;;;;;;16.58;100.00;99721.78;4992786;28;20519;-80
2021/07/26 04:23:36;;;;;;;0.70;0.70;;;;;;;16.70;100.00;99720.22;4994501;28;20476;-80
2021/07/26 04:26:02;;;;;;;0.40;0.20;;;;;;;16.66;100.00;99730.25;4992656;28;20477;-79
2021/07/26 04:28:29;;;;;;;0.40;0.20;;;;;;;16.80;100.00;99737.47;4992988;28;20944;-80
2021/07/26 04:30:55;;;;;;;0.40;0.20;;;;;;;16.88;100.00;99730.66;4996814;28;20519;-80
2021/07/26 04:33:22;;;;;;;0.40;0.20;;;;;;;16.97;100.00;99733.69;4997204;28;20476;-80
2021/07/26 04:35:48;;;;;;;0.67;0.67;;;;;;;16.85;100.00;99735.34;4996658;28;20528;-80
2021/07/26 04:38:15;;;;;;;6.10;1.07;;;;;;;16.90;100.00;99738.63;4997227;28;20441;-80
2021/07/26 04:40:42;;;;;;;0.40;0.20;;;;;;;16.90;100.00;99749.34;4996611;28;20524;-80
2021/07/26 04:43:08;;;;;;;0.40;0.20;;;;;;;17.00;100.00;99749.66;4996903;28;20509;-80
2021/07/26 04:45:35;;;;;;;0.40;0.20;;;;;;;17.13;100.00;99745.19;4998032;28;20477;-80
2021/07/26 04:48:01;;;;;;;0.40;0.20;;;;;;;17.25;100.00;99747.06;4996904;28;20484;-80
2021/07/26 04:50:28;;;;;;;0.40;0.40;;;;;;;17.64;100.00;99745.44;4997132;28;20491;-80
2021/07/26 04:52:55;;;;;;;0.40;0.20;;;;;;;18.16;100.00;99760.78;4996997;28;20580;-80
2021/07/26 04:55:21;;;;;;;0.40;0.20;;;;;;;18.68;100.00;99754.50;4998309;28;20473;-80
2021/07/26 04:57:48;;;;;;;0.40;0.20;;;;;;;19.32;100.00;99760.63;4996487;28;20457;-80
2021/07/26 05:00:14;;;;;;;0.40;0.20;;;;;;;19.58;100.00;99762.31;4997733;28;20493;-80
2021/07/26 05:02:41;;;;;;;0.40;0.30;;;;;;;19.76;100.00;99758.25;4996018;28;20489;-80
2021/07/26 05:05:08;;;;;;;0.40;0.20;;;;;;;20.32;100.00;99758.47;4997276;28;21000;-80
2021/07/26 05:07:34;;;;;;;1.17;1.17;;;;;;;20.47;100.00;99763.69;4996154;28;20453;-80
2021/07/26 05:10:02;;;;;;;0.40;0.20;;;;;;;20.72;100.00;99754.53;4996056;28;20453;-80
2021/07/26 05:12:29;;;;;;;0.40;0.20;;;;;;;20.74;98.73;99763.38;4997457;28;20866;-80
2021/07/26 05:14:55;;;;;;;0.40;0.20;;;;;;;20.89;98.92;99765.69;4997132;28;20516;-80
2021/07/26 05:17:26;;;;;;;0.40;0.20;;;;;;;21.08;99.43;99762.38;4996467;28;20947;-80
2021/07/26 05:19:54;;;;;;;0.40;0.30;;;;;;;20.96;99.60;99756.09;4996530;28;20489;-80
2021/07/26 05:22:21;;;;;;;0.40;0.20;;;;;;;20.99;100.00;99755.88;4996463;28;20449;-80
2021/07/26 05:24:50;;;;;;;0.40;0.30;;;;;;;21.22;99.91;99763.97;4996545;28;20568;-80
2021/07/26 05:27:16;;;;;;;1.27;1.17;;;;;;;21.50;99.60;99760.75;4998211;28;20519;-79
2021/07/26 05:29:43;;;;;;;0.40;0.20;;;;;;;21.80;97.86;99768.19;4996568;28;20453;-80
2021/07/26 05:32:10;;;;;;;0.40;0.20;;;;;;;22.21;97.25;99776.56;4997678;28;20440;-80
2021/07/26 05:34:37;;;;;;;0.40;0.20;;;;;;;22.24;97.21;99770.88;4996227;28;20835;-80
2021/07/26 05:37:03;;;;;;;0.70;0.70;;;;;;;22.56;95.68;99773.50;4997129;28;20453;-80
2021/07/26 05:39:30;;;;;;;1.80;1.80;;;;;;;22.71;94.91;99772.19;4996468;28;20485;-80
2021/07/26 05:41:58;;;;;;;0.47;0.30;;;;;;;22.43;95.21;99773.72;4996410;28;20427;-80
2021/07/26 05:44:25;;;;;;;0.50;0.30;;;;;;;22.80;94.48;99771.38;4996129;28;20858;-80
2021/07/26 05:46:52;;;;;;;0.40;0.30;;;;;;;22.83;94.90;99770.28;4996061;28;20933;-80
2021/07/26 05:49:19;;;;;;;0.40;0.20;;;;;;;22.76;94.23;99783.50;4997179;28;20459;-80
2021/07/26 05:51:46;;;;;;;0.40;0.30;;;;;;;22.93;94.03;99771.19;4995773;28;20500;-80
2021/07/26 05:54:12;;;;;;;0.53;0.40;;;;;;;22.73;94.56;99772.91;4995766;28;20446;-79
2021/07/26 05:56:44;;;;;;;0.40;0.20;;;;;;;22.45;96.46;99769.88;4995533;28;20473;-79
2021/07/26 05:59:10;;;;;;;0.40;0.20;;;;;;;22.36;97.04;99761.69;4995698;28;20493;-79
2021/07/26 06:01:49;;;;;;;0.40;0.20;;;;;;;22.17;97.52;99768.66;4995854;28;20935;-79
2021/07/26 06:04:21;;;;;;;0.40;0.20;;;;;;;22.46;96.58;99768.88;4997488;28;20415;-79
2021/07/26 06:06:49;;;;;;;0.40;0.20;;;;;;;22.67;95.75;99762.59;4997759;28;20500;-79
2021/07/26 06:09:17;;;;;;;0.40;0.30;;;;;;;23.04;95.34;99755.69;5011480;28;20500;-80
2021/07/26 06:11:45;;;;;;;0.40;0.30;;;;;;;23.21;93.09;99762.31;5002895;28;20499;-80
2021/07/26 06:14:12;;;;;;;0.40;0.23;;;;;;;23.36;92.28;99773.66;5000463;28;20424;-79
2021/07/26 06:16:47;;;;;;;0.40;0.20;;;;;;;23.25;92.28;99761.03;4985774;28;20909;-79
2021/07/26 06:19:15;;;;;;;0.40;0.20;;;;;;;23.45;92.19;99756.56;4999070;28;20463;-80
2021/07/26 06:21:44;;;;;;;0.40;0.20;;;;;;;23.71;91.70;99773.22;4998415;28;20525;-80
2021/07/26 06:24:12;;;;;;;0.40;0.20;;;;;;;23.98;91.46;99780.63;4998067;28;20482;-80
2021/07/26 06:26:39;;;;;;;0.40;0.30;;;;;;;23.80;92.06;99774.19;4998011;28;20427;-80
2021/07/26 06:29:06;;;;;;;0.40;0.20;;;;;;;23.72;90.37;99769.50;4999327;28;20449;-80
2021/07/26 06:31:33;;;;;;;0.40;0.20;;;;;;;23.85;91.69;99774.66;4998988;28;20428;-79
2021/07/26 06:34:00;;;;;;;1.03;1.03;;;;;;;23.63;92.35;99770.31;4995689;28;20464;-79
2021/07/26 06:36:28;;;;;;;0.40;0.30;;;;;;;23.81;90.88;99770.50;4995277;28;20926;-79
2021/07/26 06:38:55;;;;;;;0.40;0.30;;;;;;;23.45;91.34;99770.13;4996162;28;20803;-79
2021/07/26 06:41:22;;;;;;;0.40;0.20;;;;;;;23.77;91.49;99778.06;4995130;28;20555;-79
2021/07/26 06:43:52;;;;;;;1.13;1.13;;;;;;;23.68;92.13;99768.03;4993980;28;20454;-79
2021/07/26 06:46:20;;;;;;;0.97;0.87;;;;;;;23.84;91.91;99768.34;4995152;28;20493;-79
2021/07/26 06:48:47;;;;;;;0.40;0.20;;;;;;;23.68;91.94;99778.03;4993885;28;20519;-79
2021/07/26 06:51:14;;;;;;;0.40;0.23;;;;;;;23.36;91.49;99784.50;4994318;28;20424;-79
2021/07/26 06:53:41;;;;;;;0.40;0.30;;;;;;;23.44;94.56;99781.97;4996336;28;20445;-79
2021/07/26 06:56:09;;;;;;;0.70;0.70;;;;;;;23.35;92.26;99785.50;4993920;28;20481;-79
2021/07/26 06:58:39;;;;;;;0.40;0.20;;;;;;;23.62;90.46;99787.59;4994297;28;20514;-79
2021/07/26 07:01:11;;;;;;;0.53;0.53;;;;;;;23.49;89.18;99785.13;4993436;28;20496;-78
2021/07/26 07:03:39;;;;;;;0.40;0.20;;;;;;;23.17;90.31;99774.44;4993905;28;20472;-79
2021/07/26 07:06:08;;;;;;;0.40;0.30;;;;;;;23.49;88.83;99778.81;4995285;28;20452;-79
2021/07/26 07:08:36;;;;;;;0.40;0.23;;;;;;;23.52;90.36;99790.25;4995392;28;20456;-79
2021/07/26 07:11:14;;;;;;;0.40;0.20;;;;;;;24.05;88.02;99786.38;4994997;28;20486;-79
2021/07/26 07:13:44;;;;;;;0.40;0.20;;;;;;;23.96;88.83;99785.34;4995476;28;20408;-79
2021/07/26 07:16:16;;;;;;;0.40;0.30;;;;;;;24.06;87.75;99780.81;4993676;28;20485;-79
2021/07/26 07:18:47;;;;;;;0.40;0.30;;;;;;;23.70;88.12;99787.75;4993829;28;20472;-79
2021/07/26 07:21:25;;;;;;;0.40;0.20;;;;;;;23.99;87.43;99779.66;4994648;28;20460;-79
2021/07/26 07:23:54;;;;;;;0.40;0.30;;;;;;;24.27;88.12;99779.81;4993577;28;20935;-79
2021/07/26 07:26:22;;;;;;;0.40;0.30;;;;;;;23.98;86.99;99791.50;4994945;28;20477;-79
2021/07/26 07:28:49;;;;;;;0.50;0.40;;;;;;;24.18;88.25;99790.53;4993583;28;20453;-79
2021/07/26 07:31:26;;;;;;;0.50;0.37;;;;;;;24.26;87.74;99789.81;4993508;28;20421;-79
2021/07/26 07:33:57;;;;;;;0.50;0.40;;;;;;;24.05;89.41;99784.53;4993891;28;20431;-79
2021/07/26 07:36:25;;;;;;;0.40;0.20;;;;;;;24.17;89.80;99787.97;4995134;28;20462;-79
2021/07/26 07:38:54;;;;;;;0.40;0.20;;;;;;;24.33;89.96;99788.25;4994003;28;20922;-78
2021/07/26 07:41:21;;;;;;;0.40;0.23;;;;;;;24.36;86.87;99789.84;4994726;28;20500;-78
2021/07/26 07:43:48;;;;;;;0.40;0.30;;;;;;;24.44;86.50;99798.13;4994229;28;20478;-78
2021/07/26 07:46:17;;;;;;;0.73;0.73;;;;;;;24.66;87.27;99791.50;4995436;28;20945;-79
2021/07/26 07:48:43;;;;;;;0.40;0.30;;;;;;;24.87;85.11;99784.03;4993642;28;20566;-79
2021/07/26 07:51:11;;;;;;;1.27;0.80;;;;;;;24.30;86.54;99793.13;4995094;28;20454;-79
2021/07/26 07:53:38;;;;;;;0.50;0.30;;;;;;;24.42;87.51;99792.00;4994445;28;20427;-79
2021/07/26 07:56:05;;;;;;;0.40;0.30;;;;;;;24.11;86.93;99796.66;4994403;28;20506;-79
2021/07/26 07:58:34;;;;;;;0.40;0.20;;;;;;;24.37;88.25;99792.41;4993591;28;20454;-80
2021/07/26 08:01:01;;;;;;;0.43;0.30;;;;;;;24.64;86.25;99793.50;4992913;28;20560;-79
2021/07/26 08:03:29;;;;;;;1.23;1.13;;;;;;;25.16;83.78;99793.97;4992600;28;20449;-79
2021/07/26 08:05:56;;;;;;;0.40;0.20;;;;;;;25.35;82.84;99800.19;4994130;28;20520;-79
2021/07/26 08:08:22;;;;;;;0.70;0.70;;;;;;;25.31;84.75;99803.34;4992880;28;20457;-80
2021/07/26 08:10:49;;;;;;;0.40;0.20;;;;;;;25.25;83.47;99802.09;4993408;28;20596;-79
2021/07/26 08:13:23;;;;;;;22.93;0.80;;;;;;;25.44;82.54;99805.75;4994963;28;20484;-79
2021/07/26 08:15:51;;;;;;;0.40;0.20;;;;;;;25.70;82.12;99804.06;4993006;28;20526;-79
2021/07/26 08:18:19;;;;;;;0.40;0.30;;;;;;;25.81;81.35;99808.44;4981583;28;20461;-80
2021/07/26 08:20:46;;;;;;;0.50;0.30;;;;;;;25.52;82.07;99806.72;4994343;28;20464;-80
2021/07/26 08:23:13;;;;;;;0.50;0.40;;;;;;;25.78;80.95;99809.59;4993944;28;20454;-79
2021/07/26 08:25:40;;;;;;;0.40;0.30;;;;;;;25.96;81.14;99807.75;4994847;28;20456;-80
2021/07/26 08:28:07;;;;;;;0.50;0.30;;;;;;;26.26;82.99;99820.13;4994949;28;20498;-80
2021/07/26 08:30:36;;;;;;;0.40;0.30;;;;;;;26.08;81.54;99816.56;4993732;28;20429;-80
2021/07/26 08:33:04;;;;;;;0.50;0.30;;;;;;;25.78;81.89;99806.88;4995226;28;20425;-79
2021/07/26 08:35:31;;;;;;;0.40;0.20;;;;;;;25.65;80.48;99814.53;4994100;28;20473;-80
2021/07/26 08:37:58;;;;;;;0.40;0.30;;;;;;;25.90;79.32;99802.03;4994368;28;20508;-80
2021/07/26 08:40:28;;;;;;;0.40;0.30;;;;;;;25.85;79.82;99805.25;4995671;28;20468;-80
2021/07/26 08:42:56;;;;;;;0.40;0.30;;;;;;;25.83;79.08;99814.59;4996013;28;20475;-80
2021/07/26 08:45:23;;;;;;;0.60;0.60;;;;;;;26.02;80.30;99811.72;4996663;28;20444;-80
2021/07/26 08:47:50;;;;;;;0.40;0.30;;;;;;;25.97;80.65;99804.00;4994441;28;20528;-79
2021/07/26 08:50:18;;;;;;;0.93;0.93;;;;;;;25.40;81.59;99803.31;4993873;28;20802;-79
2021/07/26 08:52:49;;;;;;;0.40;0.20;;;;;;;25.71;82.72;99799.47;4994471;28;20879;-79
2021/07/26 08:55:21;;;;;;;0.40;0.30;;;;;;;26.08;78.49;99813.84;4993069;28;20499;-80
2021/07/26 08:57:48;;;;;;;0.80;0.80;;;;;;;26.09;80.44;99807.38;4992319;28;20914;-79
2021/07/26 09:00:17;;;;;;;0.40;0.20;;;;;;;26.41;75.54;99809.56;4992399;28;20486;-80
2021/07/26 09:02:49;;;;;;;0.40;0.20;;;;;;;26.04;75.36;99804.28;4993635;28;20472;-80
2021/07/26 09:05:17;;;;;;;0.40;0.20;;;;;;;25.57;78.38;99798.06;4992410;28;20480;-80
2021/07/26 09:07:45;;;;;;;0.50;0.40;;;;;;;25.43;79.05;99791.28;4992326;28;20441;-80
2021/07/26 09:10:16;;;;;;;0.40;0.30;;;;;;;25.43;80.27;99798.59;4992583;28;20424;-79
2021/07/26 09:12:44;;;;;;;0.50;0.50;;;;;;;25.32;81.69;99799.63;4992457;28;20445;-80
2021/07/26 09:15:34;;;;;;;0.40;0.30;;;;;;;25.63;78.75;99802.91;4994511;28;20495;-79
2021/07/26 09:18:06;;;;;;;1.60;1.50;;;;;;;25.95;80.53;99795.16;4997194;28;20416;-80
2021/07/26 09:20:39;;;;;;;0.50;0.30;;;;;;;26.01;78.53;99801.81;4997093;28;20489;-80
2021/07/26 09:23:13;;;;;;;1.33;1.23;;;;;;;25.82;78.20;99791.94;5012433;28;20469;-79
2021/07/26 09:25:41;;;;;;;0.60;0.60;;;;;;;25.77;76.35;99799.72;4995904;28;20470;-80
2021/07/26 09:28:14;;;;;;;0.97;0.97;;;;;;;25.82;74.60;99791.94;4996128;28;20455;-80
2021/07/26 09:30:41;;;;;;;0.90;0.90;;;;;;;25.80;75.10;99796.69;4997275;28;20862;-79
2021/07/26 09:33:34;;;;;;;0.50;0.40;;;;;;;25.87;77.65;99788.75;4996191;28;20507;-79
2021/07/26 09:36:19;;;;;;;0.40;0.30;;;;;;;26.28;76.28;99801.75;4993893;28;20476;-79
2021/07/26 09:38:49;;;;;;;0.40;0.20;;;;;;;26.43;74.83;99798.50;4996253;28;20420;-79
2021/07/26 09:41:16;;;;;;;0.40;0.30;;;;;;;26.28;75.08;99799.03;4997403;28;20585;-79
2021/07/26 09:43:44;;;;;;;0.40;0.30;;;;;;;26.14;74.98;99799.56;4995576;28;20428;-79
2021/07/26 09:46:27;;;;;;;0.50;0.40;;;;;;;26.09;75.69;99798.34;4997554;28;20456;-80
2021/07/26 09:49:17;;;;;;;0.40;0.20;;;;;;;26.11;77.48;99796.31;4995424;28;20416;-80
2021/07/26 09:52:03;;;;;;;0.40;0.30;;;;;;;26.18;76.52;99798.28;4996905;28;20449;-79
2021/07/26 09:54:44;;;;;;;4.43;1.43;;;;;;;26.60;75.19;99791.34;4995652;28;20469;-79
2021/07/26 09:57:20;;;;;;;0.40;0.20;;;;;;;26.24;74.78;99797.63;4994833;28;20584;-77
2021/07/26 09:59:48;;;;;;;0.40;0.30;;;;;;;26.41;72.92;99803.25;4994450;28;20445;-77
2021/07/26 10:02:19;;;;;;;0.40;0.20;;;;;;;26.38;73.39;99803.59;4994066;28;20887;-76
2021/07/26 10:04:48;;;;;;;0.50;0.30;;;;;;;26.62;71.63;99798.34;4994386;28;20491;-77
2021/07/26 10:07:16;;;;;;;0.70;0.70;;;;;;;26.95;70.42;99799.41;4996048;28;20913;-77
2021/07/26 10:09:45;;;;;;;0.40;0.30;;;;;;;27.10;69.85;99786.06;4994703;28;20436;-77
2021/07/26 10:12:16;;;;;;;1.23;1.23;;;;;;;26.99;69.00;99797.22;4994488;28;20993;-77
2021/07/26 10:14:46;;;;;;;0.40;0.30;;;;;;;27.25;68.54;99791.75;4995619;28;20465;-77
2021/07/26 10:17:16;;;;;;;0.40;0.30;;;;;;;27.35;67.60;99792.50;5011751;22;20918;-81
2021/07/26 10:19:43;;;;;;;0.80;0.80;;;;;;;27.19;66.76;99784.25;5013142;28;20572;-81
2021/07/26 10:22:13;;;;;;;1.03;1.03;;;;;;;27.71;64.70;99785.84;5002798;28;20489;-81
2021/07/26 10:24:47;;;;;;;0.50;0.30;;;;;;;28.06;63.68;99783.88;5013864;28;20481;-82
2021/07/26 10:27:21;;;;;;;0.40;0.30;;;;;;;28.32;61.84;99786.50;5004190;28;20495;-80
2021/07/26 10:29:52;;;;;;;0.50;0.50;;;;;;;27.62;61.79;99781.34;5006435;28;20461;-81
2021/07/26 10:32:31;;;;;;;0.50;0.50;;;;;;;28.13;61.74;99784.91;5007994;28;20448;-81
2021/07/26 10:35:00;;;;;;;0.40;0.30;;;;;;;28.33;61.69;99786.31;4994258;28;20453;-82
2021/07/26 10:37:38;;;;;;;0.40;0.30;;;;;;;28.23;60.90;99788.31;5000036;28;20441;-82
2021/07/26 10:40:21;;;;;;;0.50;0.40;;;;;;;28.77;59.66;99779.63;5013880;28;20996;-81
2021/07/26 10:42:49;;;;;;;0.40;0.30;;;;;;;29.11;59.90;99787.63;5015178;28;20453;-82
2021/07/26 10:45:45;;;;;;;0.40;0.30;;;;;;;28.57;60.25;99796.41;5012468;28;20503;-82
2021/07/26 10:48:27;;;;;;;0.40;0.30;;;;;;;28.75;59.39;99788.00;4966251;28;20485;-81
2021/07/26 10:50:56;;;;;;;0.60;0.60;;;;;;;28.84;58.96;99786.13;5014737;28;20808;-82
2021/07/26 10:53:31;;;;;;;0.50;0.30;;;;;;;28.27;59.13;99797.09;4999469;28;20454;-82
2021/07/26 10:56:13;;;;;;;0.40;0.30;;;;;;;28.68;59.00;99783.41;5003079;28;20456;-81
2021/07/26 10:58:40;;;;;;;0.60;0.40;;;;;;;28.68;58.93;99787.00;4993072;28;20461;-81
2021/07/26 11:01:26;;;;;;;0.40;0.30;;;;;;;28.62;59.19;99793.16;4995056;28;21092;-81
2021/07/26 11:03:54;;;;;;;0.47;0.30;;;;;;;28.45;59.66;99777.78;4982883;28;20461;-81
2021/07/26 11:06:36;;;;;;;0.50;0.30;;;;;;;28.94;59.22;99789.56;4996149;28;20421;-81
2021/07/26 11:09:21;;;;;;;0.40;0.30;;;;;;;28.60;58.94;99787.00;5014490;28;20479;-81
2021/07/26 11:11:52;;;;;;;9.10;0.80;;;;;;;28.78;57.80;99784.94;5013059;28;20471;-81
2021/07/26 11:14:20;;;;;;;1.10;1.00;;;;;;;29.11;56.83;99774.81;5014050;28;20589;-81
2021/07/26 11:16:56;;;;;;;0.50;0.30;;;;;;;29.25;57.20;99769.63;4994009;28;20453;-81
2021/07/26 11:19:29;;;;;;;0.50;0.37;;;;;;;28.99;55.72;99756.19;5006484;28;20519;-81
2021/07/26 11:21:55;;;;;;;0.50;0.30;;;;;;;29.33;56.81;99753.16;4995509;28;20497;-81
2021/07/26 11:24:40;;;;;;;0.60;0.60;;;;;;;29.24;56.31;99752.34;5010947;28;20499;-81
2021/07/26 11:27:15;;;;;;;0.50;0.30;;;;;;;29.43;55.71;99748.31;5004293;28;20892;-81
2021/07/26 11:29:49;;;;;;;0.40;0.30;;;;;;;29.77;55.31;99748.84;4980901;28;20551;-81
2021/07/26 11:32:20;;;;;;;0.40;0.30;;;;;;;29.64;53.65;99740.38;4993680;28;20525;-81
2021/07/26 11:34:53;;;;;;;0.70;0.60;;;;;;;29.76;55.27;99735.34;5002262;28;21020;-81
2021/07/26 11:37:29;;;;;;;0.87;0.87;;;;;;;30.17;52.64;99724.13;4996584;28;20465;-81
2021/07/26 11:39:59;;;;;;;0.50;0.30;;;;;;;28.89;54.33;99720.78;5004508;28;20465;-81
2021/07/26 11:42:26;;;;;;;0.50;0.50;;;;;;;28.53;57.87;99723.94;5010257;28;20543;-81